Time;durP1;ratioP1;P1;durP2;ratioP2;P2;SDS_P1;SDS_P2;PMS_P1;PMS_P2;Temp;Humidity;BMP_temperature;BMP_pressure;BME280_temperature;BME280_humidity;BME280_pressure;Samples;Min_cycle;Max_cycle;Signal;HPM_P1;HPM_P2
2022/10/13 00:00:00;;;;;;;0.8;0.8;;;;;;;11.6;100.0;101700;;;;
2022/10/13 00:01:06;;;;;;;0.8;0.8;;;;;;;11.5;100.0;101700;;;;
2022/10/13 00:02:00;;;;;;;0.7;0.7;;;;;;;11.5;100.0;101700;;;;
2022/10/13 00:03:00;;;;;;;0.7;0.7;;;;;;;11.5;100.0;101700;;;;
2022/10/13 00:04:00;;;;;;;0.7;0.7;;;;;;;11.5;100.0;101700;;;;
2022/10/13 00:05:00;;;;;;;0.7;0.7;;;;;;;11.6;100.0;101690;;;;
2022/10/13 00:06:04;;;;;;;0.7;0.7;;;;;;;11.6;100.0;101690;;;;
2022/10/13 00:07:00;;;;;;;0.7;0.7;;;;;;;11.6;100.0;101690;;;;
2022/10/13 00:08:00;;;;;;;0.7;0.7;;;;;;;11.6;100.0;101690;;;;
2022/10/13 00:09:00;;;;;;;0.7;0.7;;;;;;;11.5;100.0;101690;;;;
2022/10/13 00:10:00;;;;;;;0.7;0.7;;;;;;;11.5;100.0;101690;;;;
2022/10/13 00:11:00;;;;;;;0.7;0.7;;;;;;;11.5;100.0;101690;;;;
2022/10/13 00:12:00;;;;;;;0.7;0.7;;;;;;;11.5;100.0;101690;;;;
2022/10/13 00:13:00;;;;;;;0.7;0.7;;;;;;;11.5;100.0;101690;;;;
2022/10/13 00:14:01;;;;;;;0.7;0.7;;;;;;;11.5;100.0;101690;;;;
2022/10/13 00:15:00;;;;;;;0.7;0.7;;;;;;;11.5;100.0;101680;;;;
2022/10/13 00:16:01;;;;;;;0.7;0.7;;;;;;;11.5;100.0;101680;;;;
2022/10/13 00:17:00;;;;;;;0.7;0.7;;;;;;;11.5;100.0;101680;;;;
2022/10/13 00:18:00;;;;;;;0.7;0.7;;;;;;;11.5;100.0;101680;;;;
2022/10/13 00:20:00;;;;;;;0.7;0.7;;;;;;;11.5;100.0;101680;;;;
2022/10/13 00:21:00;;;;;;;0.7;0.7;;;;;;;11.5;100.0;101680;;;;
2022/10/13 00:22:00;;;;;;;1.1;1.1;;;;;;;11.5;100.0;101680;;;;
2022/10/13 00:26:01;;;;;;;1.1;1.1;;;;;;;11.5;100.0;101670;;;;
2022/10/13 00:27:00;;;;;;;1.1;1.1;;;;;;;11.6;100.0;101660;;;;
2022/10/13 00:29:00;;;;;;;1.1;1.1;;;;;;;11.5;100.0;101660;;;;
2022/10/13 00:42:00;;;;;;;0.8;0.8;;;;;;;11.6;100.0;101660;;;;
2022/10/13 00:43:00;;;;;;;0.8;0.8;;;;;;;11.6;100.0;101660;;;;
2022/10/13 00:44:01;;;;;;;0.8;0.8;;;;;;;11.7;100.0;101660;;;;
2022/10/13 00:45:00;;;;;;;0.8;0.8;;;;;;;11.7;100.0;101660;;;;
2022/10/13 00:46:00;;;;;;;0.8;0.8;;;;;;;11.6;100.0;101660;;;;
2022/10/13 00:47:00;;;;;;;0.8;0.8;;;;;;;11.6;100.0;101660;;;;
2022/10/13 00:48:00;;;;;;;0.8;0.8;;;;;;;11.6;100.0;101660;;;;
2022/10/13 00:49:03;;;;;;;0.8;0.8;;;;;;;11.6;100.0;101660;;;;
2022/10/13 00:50:01;;;;;;;0.8;0.8;;;;;;;11.6;100.0;101660;;;;
2022/10/13 00:51:00;;;;;;;0.8;0.8;;;;;;;11.6;100.0;101660;;;;
2022/10/13 00:52:00;;;;;;;0.8;0.8;;;;;;;11.7;100.0;101660;;;;
2022/10/13 00:53:00;;;;;;;0.8;0.8;;;;;;;11.7;100.0;101660;;;;
2022/10/13 00:54:00;;;;;;;0.8;0.8;;;;;;;11.6;100.0;101660;;;;
2022/10/13 00:55:01;;;;;;;0.8;0.8;;;;;;;11.6;100.0;101660;;;;
2022/10/13 00:56:00;;;;;;;0.8;0.8;;;;;;;11.6;100.0;101670;;;;
2022/10/13 00:57:01;;;;;;;0.8;0.8;;;;;;;11.6;100.0;101670;;;;
2022/10/13 00:58:05;;;;;;;0.8;0.8;;;;;;;11.5;100.0;101660;;;;
2022/10/13 00:59:00;;;;;;;0.8;0.8;;;;;;;11.5;100.0;101660;;;;
2022/10/13 01:00:01;;;;;;;0.8;0.8;;;;;;;11.7;100.0;101660;;;;
2022/10/13 01:01:00;;;;;;;0.8;0.8;;;;;;;11.7;100.0;101660;;;;
2022/10/13 01:02:01;;;;;;;0.9;0.9;;;;;;;11.7;100.0;101660;;;;
2022/10/13 01:03:01;;;;;;;0.9;0.9;;;;;;;11.7;100.0;101660;;;;
2022/10/13 01:04:00;;;;;;;0.9;0.9;;;;;;;11.6;100.0;101660;;;;
2022/10/13 01:05:01;;;;;;;0.9;0.9;;;;;;;11.6;100.0;101660;;;;
2022/10/13 01:06:01;;;;;;;0.9;0.9;;;;;;;11.7;100.0;101660;;;;
2022/10/13 01:07:00;;;;;;;0.9;0.9;;;;;;;11.7;100.0;101660;;;;
2022/10/13 01:08:00;;;;;;;0.9;0.9;;;;;;;11.7;100.0;101660;;;;
2022/10/13 01:09:00;;;;;;;0.9;0.9;;;;;;;11.7;100.0;101660;;;;
2022/10/13 01:10:01;;;;;;;0.9;0.9;;;;;;;11.7;100.0;101670;;;;
2022/10/13 01:11:02;;;;;;;0.9;0.9;;;;;;;11.7;100.0;101670;;;;
2022/10/13 01:12:10;;;;;;;0.9;0.9;;;;;;;11.6;100.0;101660;;;;
2022/10/13 01:13:08;;;;;;;0.9;0.9;;;;;;;11.6;100.0;101660;;;;
2022/10/13 01:14:00;;;;;;;0.9;0.9;;;;;;;11.6;100.0;101660;;;;
2022/10/13 01:15:10;;;;;;;0.9;0.9;;;;;;;11.6;100.0;101660;;;;
2022/10/13 01:16:05;;;;;;;0.9;0.9;;;;;;;11.8;100.0;101660;;;;
2022/10/13 01:17:10;;;;;;;0.9;0.9;;;;;;;11.8;100.0;101660;;;;
2022/10/13 01:18:10;;;;;;;0.9;0.9;;;;;;;11.8;100.0;101660;;;;
2022/10/13 01:19:10;;;;;;;0.9;0.9;;;;;;;11.8;100.0;101660;;;;
2022/10/13 01:20:00;;;;;;;0.9;0.9;;;;;;;11.8;100.0;101660;;;;
2022/10/13 01:21:05;;;;;;;0.8;0.8;;;;;;;11.8;100.0;101660;;;;
2022/10/13 01:22:10;;;;;;;0.8;0.8;;;;;;;11.8;100.0;101660;;;;
2022/10/13 01:23:11;;;;;;;0.8;0.8;;;;;;;11.8;100.0;101660;;;;
2022/10/13 01:24:08;;;;;;;0.8;0.8;;;;;;;11.7;100.0;101660;;;;
2022/10/13 01:25:03;;;;;;;0.8;0.8;;;;;;;11.7;100.0;101660;;;;
2022/10/13 01:26:10;;;;;;;0.8;0.8;;;;;;;11.9;100.0;101650;;;;
2022/10/13 01:27:00;;;;;;;0.8;0.8;;;;;;;11.9;100.0;101650;;;;
2022/10/13 01:28:10;;;;;;;0.8;0.8;;;;;;;11.9;100.0;101650;;;;
2022/10/13 01:29:03;;;;;;;0.8;0.8;;;;;;;11.9;100.0;101650;;;;
2022/10/13 01:30:04;;;;;;;0.8;0.8;;;;;;;11.8;100.0;101660;;;;
2022/10/13 01:31:04;;;;;;;0.8;0.8;;;;;;;11.8;100.0;101660;;;;
2022/10/13 01:32:06;;;;;;;0.8;0.8;;;;;;;11.8;100.0;101660;;;;
2022/10/13 01:33:10;;;;;;;0.8;0.8;;;;;;;11.8;100.0;101660;;;;
2022/10/13 01:34:00;;;;;;;0.8;0.8;;;;;;;11.9;100.0;101650;;;;
2022/10/13 01:35:06;;;;;;;0.8;0.8;;;;;;;11.9;100.0;101650;;;;
2022/10/13 01:36:05;;;;;;;0.8;0.8;;;;;;;11.8;100.0;101660;;;;
2022/10/13 01:37:10;;;;;;;0.8;0.8;;;;;;;11.8;100.0;101660;;;;
2022/10/13 01:38:10;;;;;;;0.8;0.8;;;;;;;11.7;100.0;101650;;;;
2022/10/13 01:39:04;;;;;;;0.8;0.8;;;;;;;11.7;100.0;101650;;;;
2022/10/13 01:40:00;;;;;;;0.8;0.8;;;;;;;11.7;100.0;101650;;;;
2022/10/13 01:41:00;;;;;;;0.8;0.8;;;;;;;11.7;100.0;101650;;;;
2022/10/13 01:42:09;;;;;;;1.2;1.2;;;;;;;11.7;100.0;101650;;;;
2022/10/13 01:43:02;;;;;;;1.2;1.2;;;;;;;11.7;100.0;101650;;;;
2022/10/13 01:44:05;;;;;;;1.2;1.2;;;;;;;11.8;100.0;101650;;;;
2022/10/13 01:45:00;;;;;;;1.2;1.2;;;;;;;11.8;100.0;101650;;;;
2022/10/13 01:46:10;;;;;;;1.2;1.2;;;;;;;11.8;100.0;101650;;;;
2022/10/13 01:47:01;;;;;;;1.2;1.2;;;;;;;11.8;100.0;101650;;;;
2022/10/13 01:48:01;;;;;;;1.2;1.2;;;;;;;11.8;100.0;101650;;;;
2022/10/13 01:49:01;;;;;;;1.2;1.2;;;;;;;11.8;100.0;101650;;;;
2022/10/13 01:50:01;;;;;;;1.2;1.2;;;;;;;11.8;100.0;101650;;;;
2022/10/13 01:51:00;;;;;;;1.2;1.2;;;;;;;11.8;100.0;101650;;;;
2022/10/13 01:52:02;;;;;;;1.2;1.2;;;;;;;11.8;100.0;101650;;;;
2022/10/13 01:53:02;;;;;;;1.2;1.2;;;;;;;11.8;100.0;101650;;;;
2022/10/13 01:54:00;;;;;;;1.2;1.2;;;;;;;11.8;100.0;101650;;;;
2022/10/13 01:55:04;;;;;;;1.2;1.2;;;;;;;11.8;100.0;101650;;;;
2022/10/13 01:56:00;;;;;;;1.2;1.2;;;;;;;11.8;100.0;101640;;;;
2022/10/13 01:57:00;;;;;;;1.2;1.2;;;;;;;11.8;100.0;101640;;;;
2022/10/13 01:58:00;;;;;;;1.2;1.2;;;;;;;11.9;100.0;101640;;;;
2022/10/13 01:59:01;;;;;;;1.2;1.2;;;;;;;11.9;100.0;101640;;;;
2022/10/13 02:00:02;;;;;;;1.2;1.2;;;;;;;12.0;100.0;101640;;;;
2022/10/13 02:01:00;;;;;;;1.2;1.2;;;;;;;12.0;100.0;101640;;;;
2022/10/13 02:02:01;;;;;;;1.2;1.2;;;;;;;11.9;100.0;101630;;;;
2022/10/13 02:03:10;;;;;;;1.2;1.2;;;;;;;11.9;100.0;101630;;;;
2022/10/13 02:04:01;;;;;;;1.2;1.2;;;;;;;11.9;100.0;101630;;;;
2022/10/13 02:05:10;;;;;;;1.2;1.2;;;;;;;11.9;100.0;101630;;;;
2022/10/13 02:06:00;;;;;;;1.2;1.2;;;;;;;12.0;100.0;101630;;;;
2022/10/13 02:07:05;;;;;;;1.2;1.2;;;;;;;12.0;100.0;101630;;;;
2022/10/13 02:08:01;;;;;;;1.2;1.2;;;;;;;11.9;100.0;101630;;;;
2022/10/13 02:09:10;;;;;;;1.2;1.2;;;;;;;11.9;100.0;101630;;;;
2022/10/13 02:10:06;;;;;;;1.2;1.2;;;;;;;12.0;100.0;101620;;;;
2022/10/13 02:11:00;;;;;;;1.2;1.2;;;;;;;12.0;100.0;101620;;;;
2022/10/13 02:12:04;;;;;;;1.2;1.2;;;;;;;11.9;100.0;101620;;;;
2022/10/13 02:13:02;;;;;;;1.2;1.2;;;;;;;11.9;100.0;101620;;;;
2022/10/13 02:14:07;;;;;;;1.2;1.2;;;;;;;11.9;100.0;101620;;;;
2022/10/13 02:15:00;;;;;;;1.2;1.2;;;;;;;11.9;100.0;101620;;;;
2022/10/13 02:16:00;;;;;;;1.2;1.2;;;;;;;12.0;100.0;101610;;;;
2022/10/13 02:17:01;;;;;;;1.2;1.2;;;;;;;12.0;100.0;101610;;;;
2022/10/13 02:18:01;;;;;;;1.2;1.2;;;;;;;12.1;100.0;101610;;;;
2022/10/13 02:19:01;;;;;;;1.2;1.2;;;;;;;12.1;100.0;101610;;;;
2022/10/13 02:20:00;;;;;;;1.2;1.2;;;;;;;12.1;100.0;101610;;;;
2022/10/13 02:21:00;;;;;;;1.9;1.3;;;;;;;12.1;100.0;101610;;;;
2022/10/13 02:22:00;;;;;;;1.9;1.3;;;;;;;12.1;100.0;101610;;;;
2022/10/13 02:23:01;;;;;;;1.9;1.3;;;;;;;12.1;100.0;101610;;;;
2022/10/13 02:24:00;;;;;;;1.9;1.3;;;;;;;12.0;100.0;101610;;;;
2022/10/13 02:25:00;;;;;;;1.9;1.3;;;;;;;12.0;100.0;101610;;;;
2022/10/13 02:26:00;;;;;;;1.9;1.3;;;;;;;12.0;100.0;101610;;;;
2022/10/13 02:27:00;;;;;;;1.9;1.3;;;;;;;12.0;100.0;101610;;;;
2022/10/13 02:28:00;;;;;;;1.9;1.3;;;;;;;12.0;100.0;101610;;;;
2022/10/13 02:29:06;;;;;;;1.9;1.3;;;;;;;12.0;100.0;101610;;;;
2022/10/13 02:30:00;;;;;;;1.9;1.3;;;;;;;12.0;100.0;101610;;;;
2022/10/13 02:31:00;;;;;;;1.9;1.3;;;;;;;12.0;100.0;101610;;;;
2022/10/13 02:32:00;;;;;;;1.9;1.3;;;;;;;12.1;100.0;101600;;;;
2022/10/13 02:33:00;;;;;;;1.9;1.3;;;;;;;12.1;100.0;101600;;;;
2022/10/13 02:34:00;;;;;;;1.9;1.3;;;;;;;12.1;100.0;101600;;;;
2022/10/13 02:35:00;;;;;;;1.9;1.3;;;;;;;12.1;100.0;101600;;;;
2022/10/13 02:36:00;;;;;;;1.9;1.3;;;;;;;12.0;100.0;101600;;;;
2022/10/13 02:37:00;;;;;;;1.9;1.3;;;;;;;12.0;100.0;101600;;;;
2022/10/13 02:38:00;;;;;;;1.9;1.3;;;;;;;11.9;100.0;101600;;;;
2022/10/13 02:39:00;;;;;;;1.9;1.3;;;;;;;11.9;100.0;101600;;;;
2022/10/13 02:40:00;;;;;;;1.9;1.3;;;;;;;12.0;100.0;101600;;;;
2022/10/13 02:41:01;;;;;;;0.7;0.7;;;;;;;12.0;100.0;101600;;;;
2022/10/13 02:42:00;;;;;;;0.7;0.7;;;;;;;12.0;100.0;101590;;;;
2022/10/13 02:43:00;;;;;;;0.7;0.7;;;;;;;12.0;100.0;101590;;;;
2022/10/13 02:44:00;;;;;;;0.7;0.7;;;;;;;12.2;100.0;101600;;;;
2022/10/13 02:45:00;;;;;;;0.7;0.7;;;;;;;12.2;100.0;101600;;;;
2022/10/13 02:46:00;;;;;;;0.7;0.7;;;;;;;12.1;100.0;101590;;;;
2022/10/13 02:47:00;;;;;;;0.7;0.7;;;;;;;12.1;100.0;101590;;;;
2022/10/13 02:48:00;;;;;;;0.7;0.7;;;;;;;12.1;100.0;101590;;;;
2022/10/13 02:49:00;;;;;;;0.7;0.7;;;;;;;12.1;100.0;101590;;;;
2022/10/13 02:50:00;;;;;;;0.7;0.7;;;;;;;12.1;100.0;101590;;;;
2022/10/13 02:51:00;;;;;;;0.7;0.7;;;;;;;12.1;100.0;101590;;;;
2022/10/13 02:52:00;;;;;;;0.7;0.7;;;;;;;12.1;100.0;101590;;;;
2022/10/13 02:53:00;;;;;;;0.7;0.7;;;;;;;12.1;100.0;101590;;;;
2022/10/13 02:54:00;;;;;;;0.7;0.7;;;;;;;12.1;100.0;101590;;;;
2022/10/13 02:55:00;;;;;;;0.7;0.7;;;;;;;12.1;100.0;101590;;;;
2022/10/13 02:56:00;;;;;;;0.7;0.7;;;;;;;12.1;100.0;101590;;;;
2022/10/13 02:57:00;;;;;;;0.7;0.7;;;;;;;12.1;100.0;101590;;;;
2022/10/13 02:58:00;;;;;;;0.7;0.7;;;;;;;12.1;100.0;101590;;;;
2022/10/13 02:59:00;;;;;;;0.7;0.7;;;;;;;12.1;100.0;101590;;;;
2022/10/13 03:00:00;;;;;;;0.7;0.7;;;;;;;12.0;100.0;101590;;;;
2022/10/13 03:01:10;;;;;;;1.9;1.1;;;;;;;12.0;100.0;101590;;;;
2022/10/13 03:02:00;;;;;;;1.9;1.1;;;;;;;12.2;100.0;101580;;;;
2022/10/13 03:03:00;;;;;;;1.9;1.1;;;;;;;12.2;100.0;101580;;;;
2022/10/13 03:04:00;;;;;;;1.9;1.1;;;;;;;12.1;100.0;101580;;;;
2022/10/13 03:05:00;;;;;;;1.9;1.1;;;;;;;12.1;100.0;101580;;;;
2022/10/13 03:06:00;;;;;;;1.9;1.1;;;;;;;12.1;100.0;101580;;;;
2022/10/13 03:07:00;;;;;;;1.9;1.1;;;;;;;12.1;100.0;101580;;;;
2022/10/13 03:08:00;;;;;;;1.9;1.1;;;;;;;12.2;100.0;101580;;;;
2022/10/13 03:09:00;;;;;;;1.9;1.1;;;;;;;12.2;100.0;101580;;;;
2022/10/13 03:10:00;;;;;;;1.9;1.1;;;;;;;12.0;100.0;101580;;;;
2022/10/13 03:11:00;;;;;;;1.9;1.1;;;;;;;12.0;100.0;101580;;;;
2022/10/13 03:12:00;;;;;;;1.9;1.1;;;;;;;12.1;100.0;101580;;;;
2022/10/13 03:13:00;;;;;;;1.9;1.1;;;;;;;12.1;100.0;101580;;;;
2022/10/13 03:14:00;;;;;;;1.9;1.1;;;;;;;12.1;100.0;101570;;;;
2022/10/13 03:15:00;;;;;;;1.9;1.1;;;;;;;12.1;100.0;101570;;;;
2022/10/13 03:16:00;;;;;;;1.9;1.1;;;;;;;12.1;100.0;101570;;;;
2022/10/13 03:17:00;;;;;;;1.9;1.1;;;;;;;12.1;100.0;101570;;;;
2022/10/13 03:18:00;;;;;;;1.9;1.1;;;;;;;12.2;100.0;101570;;;;
2022/10/13 03:19:00;;;;;;;1.9;1.1;;;;;;;12.2;100.0;101570;;;;
2022/10/13 03:20:00;;;;;;;1.9;1.1;;;;;;;12.2;100.0;101570;;;;
2022/10/13 03:21:01;;;;;;;0.6;0.6;;;;;;;12.2;100.0;101570;;;;
2022/10/13 03:22:00;;;;;;;0.6;0.6;;;;;;;12.2;100.0;101570;;;;
2022/10/13 03:23:00;;;;;;;0.6;0.6;;;;;;;12.2;100.0;101570;;;;
2022/10/13 03:24:00;;;;;;;0.6;0.6;;;;;;;12.3;100.0;101570;;;;
2022/10/13 03:25:00;;;;;;;0.6;0.6;;;;;;;12.3;100.0;101570;;;;
2022/10/13 03:26:00;;;;;;;0.6;0.6;;;;;;;12.2;100.0;101570;;;;
2022/10/13 03:27:00;;;;;;;0.6;0.6;;;;;;;12.2;100.0;101570;;;;
2022/10/13 03:28:00;;;;;;;0.6;0.6;;;;;;;12.3;100.0;101570;;;;
2022/10/13 03:29:00;;;;;;;0.6;0.6;;;;;;;12.3;100.0;101570;;;;
2022/10/13 03:30:00;;;;;;;0.6;0.6;;;;;;;12.3;100.0;101570;;;;
2022/10/13 03:31:00;;;;;;;0.6;0.6;;;;;;;12.3;100.0;101570;;;;
2022/10/13 03:32:00;;;;;;;0.6;0.6;;;;;;;12.1;100.0;101560;;;;
2022/10/13 03:33:00;;;;;;;0.6;0.6;;;;;;;12.1;100.0;101560;;;;
2022/10/13 03:34:00;;;;;;;0.6;0.6;;;;;;;12.2;100.0;101560;;;;
2022/10/13 03:35:00;;;;;;;0.6;0.6;;;;;;;12.2;100.0;101560;;;;
2022/10/13 03:36:01;;;;;;;0.6;0.6;;;;;;;12.1;100.0;101560;;;;
2022/10/13 03:37:00;;;;;;;0.6;0.6;;;;;;;12.1;100.0;101560;;;;
2022/10/13 03:38:00;;;;;;;0.6;0.6;;;;;;;12.2;100.0;101560;;;;
2022/10/13 03:39:00;;;;;;;0.6;0.6;;;;;;;12.2;100.0;101560;;;;
2022/10/13 03:40:00;;;;;;;0.6;0.6;;;;;;;12.2;100.0;101560;;;;
2022/10/13 03:41:04;;;;;;;0.7;0.7;;;;;;;12.2;100.0;101560;;;;
2022/10/13 03:42:00;;;;;;;0.7;0.7;;;;;;;12.2;100.0;101560;;;;
2022/10/13 03:43:00;;;;;;;0.7;0.7;;;;;;;12.2;100.0;101560;;;;
2022/10/13 03:44:00;;;;;;;0.7;0.7;;;;;;;12.2;100.0;101560;;;;
2022/10/13 03:45:00;;;;;;;0.7;0.7;;;;;;;12.2;100.0;101560;;;;
2022/10/13 03:46:00;;;;;;;0.7;0.7;;;;;;;12.2;100.0;101560;;;;
2022/10/13 03:47:00;;;;;;;0.7;0.7;;;;;;;12.2;100.0;101560;;;;
2022/10/13 03:48:00;;;;;;;0.7;0.7;;;;;;;12.0;100.0;101560;;;;
2022/10/13 03:49:00;;;;;;;0.7;0.7;;;;;;;12.0;100.0;101560;;;;
2022/10/13 03:50:00;;;;;;;0.7;0.7;;;;;;;12.1;100.0;101550;;;;
2022/10/13 03:51:03;;;;;;;0.7;0.7;;;;;;;12.1;100.0;101550;;;;
2022/10/13 03:52:00;;;;;;;0.7;0.7;;;;;;;12.2;100.0;101550;;;;
2022/10/13 03:53:00;;;;;;;0.7;0.7;;;;;;;12.2;100.0;101550;;;;
2022/10/13 03:54:00;;;;;;;0.7;0.7;;;;;;;12.2;100.0;101550;;;;
2022/10/13 03:55:00;;;;;;;0.7;0.7;;;;;;;12.2;100.0;101550;;;;
2022/10/13 03:56:00;;;;;;;0.7;0.7;;;;;;;12.3;100.0;101550;;;;
2022/10/13 03:57:00;;;;;;;0.7;0.7;;;;;;;12.3;100.0;101550;;;;
2022/10/13 03:58:00;;;;;;;0.7;0.7;;;;;;;12.3;100.0;101550;;;;
2022/10/13 03:59:03;;;;;;;0.7;0.7;;;;;;;12.3;100.0;101550;;;;
2022/10/13 04:00:00;;;;;;;0.7;0.7;;;;;;;12.2;100.0;101550;;;;
2022/10/13 04:01:02;;;;;;;0.7;0.7;;;;;;;12.2;100.0;101550;;;;
2022/10/13 04:02:00;;;;;;;0.7;0.7;;;;;;;12.2;100.0;101550;;;;
2022/10/13 04:03:00;;;;;;;0.7;0.7;;;;;;;12.2;100.0;101550;;;;
2022/10/13 04:04:01;;;;;;;0.7;0.7;;;;;;;12.2;100.0;101540;;;;
2022/10/13 04:05:00;;;;;;;0.7;0.7;;;;;;;12.2;100.0;101540;;;;
2022/10/13 04:06:01;;;;;;;0.7;0.7;;;;;;;12.2;100.0;101540;;;;
2022/10/13 04:07:00;;;;;;;0.7;0.7;;;;;;;12.2;100.0;101540;;;;
2022/10/13 04:08:00;;;;;;;0.7;0.7;;;;;;;12.2;100.0;101550;;;;
2022/10/13 04:09:00;;;;;;;0.7;0.7;;;;;;;12.2;100.0;101550;;;;
2022/10/13 04:10:00;;;;;;;0.7;0.7;;;;;;;12.2;100.0;101540;;;;
2022/10/13 04:11:01;;;;;;;0.7;0.7;;;;;;;12.2;100.0;101540;;;;
2022/10/13 04:12:00;;;;;;;0.7;0.7;;;;;;;12.3;100.0;101540;;;;
2022/10/13 04:13:00;;;;;;;0.7;0.7;;;;;;;12.3;100.0;101540;;;;
2022/10/13 04:14:00;;;;;;;0.7;0.7;;;;;;;12.3;100.0;101540;;;;
2022/10/13 04:15:00;;;;;;;0.7;0.7;;;;;;;12.3;100.0;101540;;;;
2022/10/13 04:16:00;;;;;;;0.7;0.7;;;;;;;12.2;100.0;101540;;;;
2022/10/13 04:17:00;;;;;;;0.7;0.7;;;;;;;12.2;100.0;101540;;;;
2022/10/13 04:18:00;;;;;;;0.7;0.7;;;;;;;12.4;100.0;101530;;;;
2022/10/13 04:19:01;;;;;;;0.7;0.7;;;;;;;12.4;100.0;101530;;;;
2022/10/13 04:20:00;;;;;;;0.7;0.7;;;;;;;12.2;100.0;101530;;;;
2022/10/13 04:21:00;;;;;;;0.7;0.7;;;;;;;12.2;100.0;101530;;;;
2022/10/13 04:22:00;;;;;;;0.7;0.7;;;;;;;12.2;100.0;101530;;;;
2022/10/13 04:23:00;;;;;;;0.7;0.7;;;;;;;12.2;100.0;101530;;;;
2022/10/13 04:24:00;;;;;;;0.7;0.7;;;;;;;12.3;100.0;101530;;;;
2022/10/13 04:25:00;;;;;;;0.7;0.7;;;;;;;12.3;100.0;101530;;;;
2022/10/13 04:26:00;;;;;;;0.7;0.7;;;;;;;12.4;100.0;101520;;;;
2022/10/13 04:27:00;;;;;;;0.7;0.7;;;;;;;12.4;100.0;101520;;;;
2022/10/13 04:28:00;;;;;;;0.7;0.7;;;;;;;12.2;100.0;101530;;;;
2022/10/13 04:29:01;;;;;;;0.7;0.7;;;;;;;12.2;100.0;101530;;;;
2022/10/13 04:30:00;;;;;;;0.7;0.7;;;;;;;12.2;100.0;101530;;;;
2022/10/13 04:31:01;;;;;;;0.7;0.7;;;;;;;12.2;100.0;101530;;;;
2022/10/13 04:32:00;;;;;;;0.7;0.7;;;;;;;12.2;100.0;101520;;;;
2022/10/13 04:33:00;;;;;;;0.7;0.7;;;;;;;12.2;100.0;101520;;;;
2022/10/13 04:34:00;;;;;;;0.7;0.7;;;;;;;12.3;100.0;101530;;;;
2022/10/13 04:35:00;;;;;;;0.7;0.7;;;;;;;12.3;100.0;101530;;;;
2022/10/13 04:36:03;;;;;;;0.7;0.7;;;;;;;12.3;100.0;101520;;;;
2022/10/13 04:37:00;;;;;;;0.7;0.7;;;;;;;12.3;100.0;101520;;;;
2022/10/13 04:38:00;;;;;;;0.7;0.7;;;;;;;12.4;100.0;101510;;;;
2022/10/13 04:39:00;;;;;;;0.7;0.7;;;;;;;12.4;100.0;101510;;;;
2022/10/13 04:40:00;;;;;;;0.7;0.7;;;;;;;12.3;100.0;101520;;;;
2022/10/13 04:41:03;;;;;;;0.8;0.8;;;;;;;12.3;100.0;101520;;;;
2022/10/13 04:42:00;;;;;;;0.8;0.8;;;;;;;12.3;100.0;101520;;;;
2022/10/13 04:43:00;;;;;;;0.8;0.8;;;;;;;12.3;100.0;101520;;;;
2022/10/13 04:44:01;;;;;;;0.8;0.8;;;;;;;12.2;100.0;101530;;;;
2022/10/13 04:45:00;;;;;;;0.8;0.8;;;;;;;12.2;100.0;101530;;;;
2022/10/13 04:46:04;;;;;;;0.8;0.8;;;;;;;12.2;100.0;101530;;;;
2022/10/13 04:47:00;;;;;;;0.8;0.8;;;;;;;12.2;100.0;101530;;;;
2022/10/13 04:48:00;;;;;;;0.8;0.8;;;;;;;12.3;100.0;101530;;;;
2022/10/13 04:49:00;;;;;;;0.8;0.8;;;;;;;12.3;100.0;101530;;;;
2022/10/13 04:50:00;;;;;;;0.8;0.8;;;;;;;12.3;100.0;101520;;;;
2022/10/13 04:51:02;;;;;;;0.8;0.8;;;;;;;12.3;100.0;101520;;;;
2022/10/13 04:52:00;;;;;;;0.8;0.8;;;;;;;12.4;100.0;101510;;;;
2022/10/13 04:53:00;;;;;;;0.8;0.8;;;;;;;12.4;100.0;101510;;;;
2022/10/13 04:54:00;;;;;;;0.8;0.8;;;;;;;12.4;100.0;101510;;;;
2022/10/13 04:55:00;;;;;;;0.8;0.8;;;;;;;12.4;100.0;101510;;;;
2022/10/13 04:56:04;;;;;;;0.8;0.8;;;;;;;12.3;100.0;101510;;;;
2022/10/13 04:57:00;;;;;;;0.8;0.8;;;;;;;12.3;100.0;101510;;;;
2022/10/13 04:58:00;;;;;;;0.8;0.8;;;;;;;12.3;100.0;101510;;;;
2022/10/13 04:59:00;;;;;;;0.8;0.8;;;;;;;12.3;100.0;101510;;;;
2022/10/13 05:00:00;;;;;;;0.8;0.8;;;;;;;12.3;100.0;101510;;;;
2022/10/13 05:01:00;;;;;;;0.7;0.7;;;;;;;12.3;100.0;101510;;;;
2022/10/13 05:02:02;;;;;;;0.7;0.7;;;;;;;12.3;100.0;101520;;;;
2022/10/13 05:03:00;;;;;;;0.7;0.7;;;;;;;12.3;100.0;101520;;;;
2022/10/13 05:04:01;;;;;;;0.7;0.7;;;;;;;12.2;100.0;101520;;;;
2022/10/13 05:05:00;;;;;;;0.7;0.7;;;;;;;12.2;100.0;101520;;;;
2022/10/13 05:06:00;;;;;;;0.7;0.7;;;;;;;12.4;100.0;101500;;;;
2022/10/13 05:07:10;;;;;;;0.7;0.7;;;;;;;12.4;100.0;101500;;;;
2022/10/13 05:08:00;;;;;;;0.7;0.7;;;;;;;12.3;100.0;101510;;;;
2022/10/13 05:09:00;;;;;;;0.7;0.7;;;;;;;12.3;100.0;101510;;;;
2022/10/13 05:10:00;;;;;;;0.7;0.7;;;;;;;12.3;100.0;101510;;;;
2022/10/13 05:11:00;;;;;;;0.7;0.7;;;;;;;12.3;100.0;101510;;;;
2022/10/13 05:12:00;;;;;;;0.7;0.7;;;;;;;12.1;100.0;101520;;;;
2022/10/13 05:13:00;;;;;;;0.7;0.7;;;;;;;12.1;100.0;101520;;;;
2022/10/13 05:14:00;;;;;;;0.7;0.7;;;;;;;12.2;100.0;101520;;;;
2022/10/13 05:15:00;;;;;;;0.7;0.7;;;;;;;12.2;100.0;101520;;;;
2022/10/13 05:16:04;;;;;;;0.7;0.7;;;;;;;12.1;100.0;101510;;;;
2022/10/13 05:17:00;;;;;;;0.7;0.7;;;;;;;12.1;100.0;101510;;;;
2022/10/13 05:18:00;;;;;;;0.7;0.7;;;;;;;12.1;100.0;101510;;;;
2022/10/13 05:19:00;;;;;;;0.7;0.7;;;;;;;12.1;100.0;101510;;;;
2022/10/13 05:20:00;;;;;;;0.7;0.7;;;;;;;12.1;100.0;101520;;;;
2022/10/13 05:21:06;;;;;;;0.7;0.7;;;;;;;12.1;100.0;101520;;;;
2022/10/13 05:22:00;;;;;;;0.7;0.7;;;;;;;12.1;100.0;101510;;;;
2022/10/13 05:23:00;;;;;;;0.7;0.7;;;;;;;12.1;100.0;101510;;;;
2022/10/13 05:24:01;;;;;;;0.7;0.7;;;;;;;12.2;100.0;101510;;;;
2022/10/13 05:25:00;;;;;;;0.7;0.7;;;;;;;12.2;100.0;101510;;;;
2022/10/13 05:26:01;;;;;;;0.7;0.7;;;;;;;12.2;100.0;101490;;;;
2022/10/13 05:27:00;;;;;;;0.7;0.7;;;;;;;12.2;100.0;101490;;;;
2022/10/13 05:28:00;;;;;;;0.7;0.7;;;;;;;12.1;100.0;101490;;;;
2022/10/13 05:29:00;;;;;;;0.7;0.7;;;;;;;12.1;100.0;101490;;;;
2022/10/13 05:30:00;;;;;;;0.7;0.7;;;;;;;12.2;100.0;101490;;;;
2022/10/13 05:31:08;;;;;;;0.7;0.7;;;;;;;12.2;100.0;101490;;;;
2022/10/13 05:32:00;;;;;;;0.7;0.7;;;;;;;12.1;100.0;101510;;;;
2022/10/13 05:33:00;;;;;;;0.7;0.7;;;;;;;12.1;100.0;101510;;;;
2022/10/13 05:34:00;;;;;;;0.7;0.7;;;;;;;12.0;100.0;101520;;;;
2022/10/13 05:35:00;;;;;;;0.7;0.7;;;;;;;12.0;100.0;101520;;;;
2022/10/13 05:36:04;;;;;;;0.7;0.7;;;;;;;12.0;100.0;101520;;;;
2022/10/13 05:37:00;;;;;;;0.7;0.7;;;;;;;12.0;100.0;101520;;;;
2022/10/13 05:38:00;;;;;;;0.7;0.7;;;;;;;12.0;100.0;101520;;;;
2022/10/13 05:39:02;;;;;;;0.7;0.7;;;;;;;12.0;100.0;101520;;;;
2022/10/13 05:40:00;;;;;;;0.7;0.7;;;;;;;11.9;100.0;101520;;;;
2022/10/13 05:41:02;;;;;;;0.7;0.7;;;;;;;11.9;100.0;101520;;;;
2022/10/13 05:42:00;;;;;;;0.7;0.7;;;;;;;11.9;100.0;101520;;;;
2022/10/13 05:43:00;;;;;;;0.7;0.7;;;;;;;11.9;100.0;101520;;;;
2022/10/13 05:44:01;;;;;;;0.7;0.7;;;;;;;12.1;100.0;101520;;;;
2022/10/13 05:45:00;;;;;;;0.7;0.7;;;;;;;12.1;100.0;101520;;;;
2022/10/13 05:46:00;;;;;;;0.7;0.7;;;;;;;11.9;100.0;101530;;;;
2022/10/13 05:47:07;;;;;;;0.7;0.7;;;;;;;11.9;100.0;101530;;;;
2022/10/13 05:48:00;;;;;;;0.7;0.7;;;;;;;12.1;100.0;101520;;;;
2022/10/13 05:49:00;;;;;;;0.7;0.7;;;;;;;12.1;100.0;101520;;;;
2022/10/13 05:50:00;;;;;;;0.7;0.7;;;;;;;12.1;100.0;101530;;;;
2022/10/13 05:51:02;;;;;;;0.7;0.7;;;;;;;12.1;100.0;101530;;;;
2022/10/13 05:52:02;;;;;;;0.7;0.7;;;;;;;12.1;100.0;101520;;;;
2022/10/13 05:53:00;;;;;;;0.7;0.7;;;;;;;12.1;100.0;101520;;;;
2022/10/13 05:54:03;;;;;;;0.7;0.7;;;;;;;12.1;100.0;101520;;;;
2022/10/13 05:55:01;;;;;;;0.7;0.7;;;;;;;12.1;100.0;101520;;;;
2022/10/13 05:56:05;;;;;;;0.7;0.7;;;;;;;12.1;100.0;101520;;;;
2022/10/13 05:57:02;;;;;;;0.7;0.7;;;;;;;12.1;100.0;101520;;;;
2022/10/13 05:58:00;;;;;;;0.7;0.7;;;;;;;12.1;100.0;101520;;;;
2022/10/13 05:59:03;;;;;;;0.7;0.7;;;;;;;12.1;100.0;101520;;;;
2022/10/13 06:00:05;;;;;;;0.7;0.7;;;;;;;12.1;100.0;101520;;;;
2022/10/13 06:01:00;;;;;;;0.9;0.9;;;;;;;12.1;100.0;101520;;;;
2022/10/13 06:02:00;;;;;;;0.9;0.9;;;;;;;12.1;100.0;101520;;;;
2022/10/13 06:03:06;;;;;;;0.9;0.9;;;;;;;12.1;100.0;101520;;;;
2022/10/13 06:04:03;;;;;;;0.9;0.9;;;;;;;12.1;100.0;101510;;;;
2022/10/13 06:05:01;;;;;;;0.9;0.9;;;;;;;12.1;100.0;101510;;;;
2022/10/13 06:06:00;;;;;;;0.9;0.9;;;;;;;12.1;100.0;101510;;;;
2022/10/13 06:07:00;;;;;;;0.9;0.9;;;;;;;12.1;100.0;101510;;;;
2022/10/13 06:08:00;;;;;;;0.9;0.9;;;;;;;12.1;100.0;101500;;;;
2022/10/13 06:09:00;;;;;;;0.9;0.9;;;;;;;12.1;100.0;101500;;;;
2022/10/13 06:10:00;;;;;;;0.9;0.9;;;;;;;12.1;100.0;101500;;;;
2022/10/13 06:11:01;;;;;;;0.9;0.9;;;;;;;12.1;100.0;101500;;;;
2022/10/13 06:12:00;;;;;;;0.9;0.9;;;;;;;12.1;100.0;101500;;;;
2022/10/13 06:13:00;;;;;;;0.9;0.9;;;;;;;12.1;100.0;101500;;;;
2022/10/13 06:14:00;;;;;;;0.9;0.9;;;;;;;12.1;100.0;101500;;;;
2022/10/13 06:15:00;;;;;;;0.9;0.9;;;;;;;12.1;100.0;101500;;;;
2022/10/13 06:16:00;;;;;;;0.9;0.9;;;;;;;12.0;100.0;101500;;;;
2022/10/13 06:17:00;;;;;;;0.9;0.9;;;;;;;12.0;100.0;101500;;;;
2022/10/13 06:18:00;;;;;;;0.9;0.9;;;;;;;12.1;100.0;101500;;;;
2022/10/13 06:19:00;;;;;;;0.9;0.9;;;;;;;12.1;100.0;101500;;;;
2022/10/13 06:20:00;;;;;;;0.9;0.9;;;;;;;12.2;100.0;101500;;;;
2022/10/13 06:21:00;;;;;;;0.7;0.7;;;;;;;12.2;100.0;101500;;;;
2022/10/13 06:22:03;;;;;;;0.7;0.7;;;;;;;12.5;100.0;101500;;;;
2022/10/13 06:23:00;;;;;;;0.7;0.7;;;;;;;12.5;100.0;101500;;;;
2022/10/13 06:24:00;;;;;;;0.7;0.7;;;;;;;12.3;100.0;101500;;;;
2022/10/13 06:25:00;;;;;;;0.7;0.7;;;;;;;12.3;100.0;101500;;;;
2022/10/13 06:26:00;;;;;;;0.7;0.7;;;;;;;12.3;100.0;101500;;;;
2022/10/13 06:27:00;;;;;;;0.7;0.7;;;;;;;12.3;100.0;101500;;;;
2022/10/13 06:28:00;;;;;;;0.7;0.7;;;;;;;12.2;100.0;101500;;;;
2022/10/13 06:29:00;;;;;;;0.7;0.7;;;;;;;12.2;100.0;101500;;;;
2022/10/13 06:30:00;;;;;;;0.7;0.7;;;;;;;12.1;100.0;101500;;;;
2022/10/13 06:31:02;;;;;;;0.7;0.7;;;;;;;12.1;100.0;101500;;;;
2022/10/13 06:32:00;;;;;;;0.7;0.7;;;;;;;12.2;100.0;101500;;;;
2022/10/13 06:33:00;;;;;;;0.7;0.7;;;;;;;12.2;100.0;101500;;;;
2022/10/13 06:34:00;;;;;;;0.7;0.7;;;;;;;12.2;100.0;101500;;;;
2022/10/13 06:35:00;;;;;;;0.7;0.7;;;;;;;12.2;100.0;101500;;;;
2022/10/13 06:36:02;;;;;;;0.7;0.7;;;;;;;12.2;100.0;101490;;;;
2022/10/13 06:37:00;;;;;;;0.7;0.7;;;;;;;12.2;100.0;101490;;;;
2022/10/13 06:38:00;;;;;;;0.7;0.7;;;;;;;12.2;100.0;101490;;;;
2022/10/13 06:39:00;;;;;;;0.7;0.7;;;;;;;12.2;100.0;101490;;;;